sensor_id;sensor_type;location;lat;lon;timestamp;temperature;humidity
38380;DHT22;38377;47.418;18.882;2023-08-31T00:00:10;14.50;99.90
38380;DHT22;38377;47.418;18.882;2023-08-31T00:02:36;14.40;99.90
38380;DHT22;38377;47.418;18.882;2023-08-31T00:05:02;14.50;99.90
38380;DHT22;38377;47.418;18.882;2023-08-31T00:07:29;14.50;99.90
38380;DHT22;38377;47.418;18.882;2023-08-31T00:09:55;14.50;99.90
38380;DHT22;38377;47.418;18.882;2023-08-31T00:12:20;14.50;99.90
38380;DHT22;38377;47.418;18.882;2023-08-31T00:14:49;14.50;99.90
38380;DHT22;38377;47.418;18.882;2023-08-31T00:17:15;14.50;99.90
38380;DHT22;38377;47.418;18.882;2023-08-31T00:19:40;14.50;99.90
38380;DHT22;38377;47.418;18.882;2023-08-31T00:22:06;14.50;99.90
38380;DHT22;38377;47.418;18.882;2023-08-31T00:24:32;14.50;99.90
38380;DHT22;38377;47.418;18.882;2023-08-31T00:27:03;14.50;99.90
38380;DHT22;38377;47.418;18.882;2023-08-31T00:29:29;14.60;99.90
38380;DHT22;38377;47.418;18.882;2023-08-31T00:31:56;14.60;99.90
38380;DHT22;38377;47.418;18.882;2023-08-31T00:34:22;14.60;99.90
38380;DHT22;38377;47.418;18.882;2023-08-31T00:36:47;14.50;99.90
38380;DHT22;38377;47.418;18.882;2023-08-31T00:39:14;14.60;99.90
38380;DHT22;38377;47.418;18.882;2023-08-31T00:41:39;14.60;99.90
38380;DHT22;38377;47.418;18.882;2023-08-31T00:44:05;14.60;99.90
38380;DHT22;38377;47.418;18.882;2023-08-31T00:46:32;14.60;99.90
38380;DHT22;38377;47.418;18.882;2023-08-31T00:48:58;14.60;99.90
38380;DHT22;38377;47.418;18.882;2023-08-31T00:51:24;14.60;99.90
38380;DHT22;38377;47.418;18.882;2023-08-31T00:53:51;14.60;99.90
38380;DHT22;38377;47.418;18.882;2023-08-31T00:56:21;14.60;99.90
38380;DHT22;38377;47.418;18.882;2023-08-31T00:58:47;14.60;99.90
38380;DHT22;38377;47.418;18.882;2023-08-31T01:01:41;14.60;99.90
38380;DHT22;38377;47.418;18.882;2023-08-31T01:14:25;14.50;99.90
38380;DHT22;38377;47.418;18.882;2023-08-31T01:16:53;14.50;99.90
38380;DHT22;38377;47.418;18.882;2023-08-31T01:22:27;14.50;99.90
38380;DHT22;38377;47.418;18.882;2023-08-31T01:24:55;14.50;99.90
38380;DHT22;38377;47.418;18.882;2023-08-31T01:27:21;14.50;99.90
38380;DHT22;38377;47.418;18.882;2023-08-31T01:29:46;14.50;99.90
38380;DHT22;38377;47.418;18.882;2023-08-31T01:32:12;14.50;99.90
38380;DHT22;38377;47.418;18.882;2023-08-31T01:34:38;14.50;99.90
38380;DHT22;38377;47.418;18.882;2023-08-31T01:37:13;14.50;99.90
38380;DHT22;38377;47.418;18.882;2023-08-31T01:39:55;14.40;99.90
38380;DHT22;38377;47.418;18.882;2023-08-31T01:42:22;14.50;99.90
38380;DHT22;38377;47.418;18.882;2023-08-31T01:44:49;14.50;99.90
38380;DHT22;38377;47.418;18.882;2023-08-31T01:47:16;14.50;99.90
38380;DHT22;38377;47.418;18.882;2023-08-31T01:49:45;14.40;99.90
38380;DHT22;38377;47.418;18.882;2023-08-31T01:52:11;14.40;99.90
38380;DHT22;38377;47.418;18.882;2023-08-31T01:54:37;14.40;99.90
38380;DHT22;38377;47.418;18.882;2023-08-31T01:57:05;14.40;99.90
38380;DHT22;38377;47.418;18.882;2023-08-31T01:59:32;14.40;99.90
38380;DHT22;38377;47.418;18.882;2023-08-31T02:01:58;14.40;99.90
38380;DHT22;38377;47.418;18.882;2023-08-31T02:04:24;14.40;99.90
38380;DHT22;38377;47.418;18.882;2023-08-31T02:06:49;14.50;99.90
38380;DHT22;38377;47.418;18.882;2023-08-31T02:09:15;14.40;99.90
38380;DHT22;38377;47.418;18.882;2023-08-31T02:11:41;14.40;99.90
38380;DHT22;38377;47.418;18.882;2023-08-31T02:14:06;14.40;99.90
38380;DHT22;38377;47.418;18.882;2023-08-31T02:16:33;14.40;99.90
38380;DHT22;38377;47.418;18.882;2023-08-31T02:18:59;14.40;99.90
38380;DHT22;38377;47.418;18.882;2023-08-31T02:21:25;14.40;99.90
38380;DHT22;38377;47.418;18.882;2023-08-31T02:23:51;14.40;99.90
38380;DHT22;38377;47.418;18.882;2023-08-31T02:26:16;14.40;99.90
38380;DHT22;38377;47.418;18.882;2023-08-31T02:28:42;14.40;99.90
38380;DHT22;38377;47.418;18.882;2023-08-31T02:31:10;14.40;99.90
38380;DHT22;38377;47.418;18.882;2023-08-31T02:33:37;14.30;99.90
38380;DHT22;38377;47.418;18.882;2023-08-31T02:36:03;14.30;99.90
38380;DHT22;38377;47.418;18.882;2023-08-31T02:38:28;14.30;99.90
38380;DHT22;38377;47.418;18.882;2023-08-31T02:40:54;14.30;99.90
38380;DHT22;38377;47.418;18.882;2023-08-31T02:43:20;14.20;99.90
38380;DHT22;38377;47.418;18.882;2023-08-31T02:45:45;14.20;99.90
38380;DHT22;38377;47.418;18.882;2023-08-31T02:48:11;14.30;99.90
38380;DHT22;38377;47.418;18.882;2023-08-31T02:50:38;14.30;99.90
38380;DHT22;38377;47.418;18.882;2023-08-31T02:53:04;14.20;99.90
38380;DHT22;38377;47.418;18.882;2023-08-31T02:55:32;14.30;99.90
38380;DHT22;38377;47.418;18.882;2023-08-31T02:57:58;14.20;99.90
38380;DHT22;38377;47.418;18.882;2023-08-31T03:00:24;14.20;99.90
38380;DHT22;38377;47.418;18.882;2023-08-31T03:02:50;14.30;99.90
38380;DHT22;38377;47.418;18.882;2023-08-31T03:05:18;14.20;99.90
38380;DHT22;38377;47.418;18.882;2023-08-31T03:07:43;14.20;99.90
38380;DHT22;38377;47.418;18.882;2023-08-31T03:10:09;14.20;99.90
38380;DHT22;38377;47.418;18.882;2023-08-31T03:12:36;14.20;99.90
38380;DHT22;38377;47.418;18.882;2023-08-31T03:15:02;14.20;99.90
38380;DHT22;38377;47.418;18.882;2023-08-31T03:17:28;14.10;99.90
38380;DHT22;38377;47.418;18.882;2023-08-31T03:19:53;14.20;99.90
38380;DHT22;38377;47.418;18.882;2023-08-31T03:22:19;14.10;99.90
38380;DHT22;38377;47.418;18.882;2023-08-31T03:24:45;14.10;99.90
38380;DHT22;38377;47.418;18.882;2023-08-31T03:27:11;14.10;99.90
38380;DHT22;38377;47.418;18.882;2023-08-31T03:29:38;14.10;99.90
38380;DHT22;38377;47.418;18.882;2023-08-31T03:32:05;14.10;99.90
38380;DHT22;38377;47.418;18.882;2023-08-31T03:34:31;14.00;99.90
38380;DHT22;38377;47.418;18.882;2023-08-31T03:36:57;14.00;99.90
38380;DHT22;38377;47.418;18.882;2023-08-31T03:39:24;14.00;99.90
38380;DHT22;38377;47.418;18.882;2023-08-31T03:41:50;14.00;99.90
38380;DHT22;38377;47.418;18.882;2023-08-31T03:44:15;14.00;99.90
38380;DHT22;38377;47.418;18.882;2023-08-31T03:46:42;14.00;99.90
38380;DHT22;38377;47.418;18.882;2023-08-31T03:49:07;14.00;99.90
38380;DHT22;38377;47.418;18.882;2023-08-31T03:51:33;14.00;99.90
38380;DHT22;38377;47.418;18.882;2023-08-31T03:53:59;14.00;99.90
38380;DHT22;38377;47.418;18.882;2023-08-31T03:56:25;14.10;99.90
38380;DHT22;38377;47.418;18.882;2023-08-31T03:58:50;14.10;99.90
38380;DHT22;38377;47.418;18.882;2023-08-31T04:01:16;14.10;99.90
38380;DHT22;38377;47.418;18.882;2023-08-31T04:03:43;14.10;99.90
38380;DHT22;38377;47.418;18.882;2023-08-31T04:06:09;14.10;99.90
38380;DHT22;38377;47.418;18.882;2023-08-31T04:08:34;14.10;99.90
38380;DHT22;38377;47.418;18.882;2023-08-31T04:11:00;14.20;99.90
38380;DHT22;38377;47.418;18.882;2023-08-31T04:13:26;14.20;99.90
38380;DHT22;38377;47.418;18.882;2023-08-31T04:15:52;14.20;99.90
38380;DHT22;38377;47.418;18.882;2023-08-31T04:18:19;14.20;99.90
38380;DHT22;38377;47.418;18.882;2023-08-31T04:20:52;14.20;99.90
38380;DHT22;38377;47.418;18.882;2023-08-31T04:23:20;14.20;99.90
38380;DHT22;38377;47.418;18.882;2023-08-31T04:25:47;14.20;99.90
38380;DHT22;38377;47.418;18.882;2023-08-31T04:28:14;14.20;99.90
38380;DHT22;38377;47.418;18.882;2023-08-31T04:30:40;14.20;99.90
38380;DHT22;38377;47.418;18.882;2023-08-31T04:33:09;14.20;99.90
38380;DHT22;38377;47.418;18.882;2023-08-31T04:35:39;14.20;99.90
38380;DHT22;38377;47.418;18.882;2023-08-31T04:38:05;14.20;99.90
38380;DHT22;38377;47.418;18.882;2023-08-31T04:40:31;14.20;99.90
38380;DHT22;38377;47.418;18.882;2023-08-31T04:42:57;14.20;99.90
38380;DHT22;38377;47.418;18.882;2023-08-31T04:45:23;14.20;99.90
38380;DHT22;38377;47.418;18.882;2023-08-31T04:47:48;14.20;99.90
38380;DHT22;38377;47.418;18.882;2023-08-31T04:50:16;14.20;99.90
38380;DHT22;38377;47.418;18.882;2023-08-31T04:52:42;14.20;99.90
38380;DHT22;38377;47.418;18.882;2023-08-31T04:55:08;14.20;99.90
38380;DHT22;38377;47.418;18.882;2023-08-31T04:57:34;14.30;99.90
38380;DHT22;38377;47.418;18.882;2023-08-31T05:00:00;14.30;99.90
38380;DHT22;38377;47.418;18.882;2023-08-31T05:02:27;14.30;99.90
38380;DHT22;38377;47.418;18.882;2023-08-31T05:04:55;14.40;99.90
38380;DHT22;38377;47.418;18.882;2023-08-31T05:07:21;14.40;99.90
38380;DHT22;38377;47.418;18.882;2023-08-31T05:09:47;14.40;99.90
38380;DHT22;38377;47.418;18.882;2023-08-31T05:12:12;14.50;99.90
38380;DHT22;38377;47.418;18.882;2023-08-31T05:14:38;14.50;99.90
38380;DHT22;38377;47.418;18.882;2023-08-31T05:17:05;14.60;99.90
38380;DHT22;38377;47.418;18.882;2023-08-31T05:19:31;14.60;99.90
38380;DHT22;38377;47.418;18.882;2023-08-31T05:21:57;14.70;99.90
38380;DHT22;38377;47.418;18.882;2023-08-31T05:24:22;14.80;99.90
38380;DHT22;38377;47.418;18.882;2023-08-31T05:26:54;14.80;99.90
38380;DHT22;38377;47.418;18.882;2023-08-31T05:29:20;14.80;99.90
38380;DHT22;38377;47.418;18.882;2023-08-31T05:31:45;14.90;99.90
38380;DHT22;38377;47.418;18.882;2023-08-31T05:34:16;14.90;99.90
38380;DHT22;38377;47.418;18.882;2023-08-31T05:36:49;14.90;99.90
38380;DHT22;38377;47.418;18.882;2023-08-31T05:39:15;15.00;99.90
38380;DHT22;38377;47.418;18.882;2023-08-31T05:41:45;15.00;99.90
38380;DHT22;38377;47.418;18.882;2023-08-31T05:44:10;15.00;99.90
38380;DHT22;38377;47.418;18.882;2023-08-31T05:46:36;15.10;99.90
38380;DHT22;38377;47.418;18.882;2023-08-31T05:49:03;15.20;99.90
38380;DHT22;38377;47.418;18.882;2023-08-31T05:51:29;15.30;99.90
38380;DHT22;38377;47.418;18.882;2023-08-31T05:53:55;15.30;99.90
38380;DHT22;38377;47.418;18.882;2023-08-31T05:56:20;15.50;99.90
38380;DHT22;38377;47.418;18.882;2023-08-31T05:58:46;15.60;99.90
38380;DHT22;38377;47.418;18.882;2023-08-31T06:01:13;15.70;99.90
38380;DHT22;38377;47.418;18.882;2023-08-31T06:03:38;15.80;99.90
38380;DHT22;38377;47.418;18.882;2023-08-31T06:06:04;16.00;99.90
38380;DHT22;38377;47.418;18.882;2023-08-31T06:08:30;16.10;99.90
38380;DHT22;38377;47.418;18.882;2023-08-31T06:10:56;16.20;99.90
38380;DHT22;38377;47.418;18.882;2023-08-31T06:13:21;16.20;99.90
38380;DHT22;38377;47.418;18.882;2023-08-31T06:15:47;16.30;99.90
38380;DHT22;38377;47.418;18.882;2023-08-31T06:18:13;16.30;99.90
38380;DHT22;38377;47.418;18.882;2023-08-31T06:20:39;16.40;99.90
38380;DHT22;38377;47.418;18.882;2023-08-31T06:23:05;16.40;99.90
38380;DHT22;38377;47.418;18.882;2023-08-31T06:25:31;16.30;99.90
38380;DHT22;38377;47.418;18.882;2023-08-31T06:27:57;16.30;99.90
38380;DHT22;38377;47.418;18.882;2023-08-31T06:30:23;16.30;99.90
38380;DHT22;38377;47.418;18.882;2023-08-31T06:32:50;16.30;99.90
38380;DHT22;38377;47.418;18.882;2023-08-31T06:35:16;16.30;99.90
38380;DHT22;38377;47.418;18.882;2023-08-31T06:37:42;16.40;99.90
38380;DHT22;38377;47.418;18.882;2023-08-31T06:40:10;16.40;99.90
38380;DHT22;38377;47.418;18.882;2023-08-31T06:42:36;16.50;99.90
38380;DHT22;38377;47.418;18.882;2023-08-31T06:45:07;16.50;99.90
38380;DHT22;38377;47.418;18.882;2023-08-31T06:47:33;16.60;99.90
38380;DHT22;38377;47.418;18.882;2023-08-31T06:49:59;16.60;99.90
38380;DHT22;38377;47.418;18.882;2023-08-31T06:52:26;16.70;99.90
38380;DHT22;38377;47.418;18.882;2023-08-31T06:54:52;16.80;99.90
38380;DHT22;38377;47.418;18.882;2023-08-31T06:57:23;16.90;99.90
38380;DHT22;38377;47.418;18.882;2023-08-31T06:59:48;17.00;99.90
38380;DHT22;38377;47.418;18.882;2023-08-31T07:02:14;17.10;99.90
38380;DHT22;38377;47.418;18.882;2023-08-31T07:04:40;17.20;99.90
38380;DHT22;38377;47.418;18.882;2023-08-31T07:07:06;17.30;99.90
38380;DHT22;38377;47.418;18.882;2023-08-31T07:09:34;17.40;99.90
38380;DHT22;38377;47.418;18.882;2023-08-31T07:12:00;17.40;99.90
38380;DHT22;38377;47.418;18.882;2023-08-31T07:14:26;17.30;99.90
38380;DHT22;38377;47.418;18.882;2023-08-31T07:16:52;17.30;99.90
38380;DHT22;38377;47.418;18.882;2023-08-31T07:19:18;17.40;99.90
38380;DHT22;38377;47.418;18.882;2023-08-31T07:21:43;17.50;99.90
38380;DHT22;38377;47.418;18.882;2023-08-31T07:24:09;17.70;99.90
38380;DHT22;38377;47.418;18.882;2023-08-31T07:26:35;17.80;99.90
38380;DHT22;38377;47.418;18.882;2023-08-31T07:29:01;17.80;99.90
38380;DHT22;38377;47.418;18.882;2023-08-31T07:31:30;18.00;99.90
38380;DHT22;38377;47.418;18.882;2023-08-31T07:33:56;18.10;99.90
38380;DHT22;38377;47.418;18.882;2023-08-31T07:36:21;18.20;99.90
38380;DHT22;38377;47.418;18.882;2023-08-31T07:38:47;18.50;99.90
38380;DHT22;38377;47.418;18.882;2023-08-31T07:41:13;18.60;99.90
38380;DHT22;38377;47.418;18.882;2023-08-31T07:43:38;18.90;99.90
38380;DHT22;38377;47.418;18.882;2023-08-31T07:46:04;19.10;99.90
38380;DHT22;38377;47.418;18.882;2023-08-31T07:48:29;19.00;99.90
38380;DHT22;38377;47.418;18.882;2023-08-31T07:50:55;18.90;99.90
38380;DHT22;38377;47.418;18.882;2023-08-31T07:53:21;18.90;99.90
38380;DHT22;38377;47.418;18.882;2023-08-31T07:55:54;19.20;99.90
38380;DHT22;38377;47.418;18.882;2023-08-31T07:58:21;19.10;99.90
38380;DHT22;38377;47.418;18.882;2023-08-31T08:00:47;19.10;99.90
38380;DHT22;38377;47.418;18.882;2023-08-31T08:03:12;19.30;99.90
38380;DHT22;38377;47.418;18.882;2023-08-31T08:05:39;19.30;99.90
38380;DHT22;38377;47.418;18.882;2023-08-31T08:08:05;19.20;99.90
38380;DHT22;38377;47.418;18.882;2023-08-31T08:10:31;19.30;99.90
38380;DHT22;38377;47.418;18.882;2023-08-31T08:12:57;19.30;99.90
38380;DHT22;38377;47.418;18.882;2023-08-31T08:15:22;19.30;99.90
38380;DHT22;38377;47.418;18.882;2023-08-31T08:17:48;19.00;99.90
38380;DHT22;38377;47.418;18.882;2023-08-31T08:20:19;19.00;99.90
38380;DHT22;38377;47.418;18.882;2023-08-31T08:22:45;19.00;99.90
38380;DHT22;38377;47.418;18.882;2023-08-31T08:25:11;19.40;99.90
38380;DHT22;38377;47.418;18.882;2023-08-31T08:27:36;19.80;99.90
38380;DHT22;38377;47.418;18.882;2023-08-31T08:30:03;19.90;99.90
38380;DHT22;38377;47.418;18.882;2023-08-31T08:32:29;20.00;99.90
38380;DHT22;38377;47.418;18.882;2023-08-31T08:34:54;20.30;99.90
38380;DHT22;38377;47.418;18.882;2023-08-31T08:37:20;20.50;99.90
38380;DHT22;38377;47.418;18.882;2023-08-31T08:39:49;20.80;99.90
38380;DHT22;38377;47.418;18.882;2023-08-31T08:42:17;21.00;99.90
38380;DHT22;38377;47.418;18.882;2023-08-31T08:44:43;20.70;99.90
38380;DHT22;38377;47.418;18.882;2023-08-31T08:47:11;20.70;99.90
38380;DHT22;38377;47.418;18.882;2023-08-31T08:49:38;20.70;99.90
38380;DHT22;38377;47.418;18.882;2023-08-31T08:52:04;20.90;99.90
38380;DHT22;38377;47.418;18.882;2023-08-31T08:54:31;21.10;99.90
38380;DHT22;38377;47.418;18.882;2023-08-31T08:56:57;21.50;99.90
38380;DHT22;38377;47.418;18.882;2023-08-31T08:59:24;22.00;99.90
38380;DHT22;38377;47.418;18.882;2023-08-31T09:01:49;22.50;97.50
38380;DHT22;38377;47.418;18.882;2023-08-31T09:04:15;22.50;97.40
38380;DHT22;38377;47.418;18.882;2023-08-31T09:06:41;22.50;97.90
38380;DHT22;38377;47.418;18.882;2023-08-31T09:09:10;22.30;96.10
38380;DHT22;38377;47.418;18.882;2023-08-31T09:11:36;22.00;96.70
38380;DHT22;38377;47.418;18.882;2023-08-31T09:14:15;21.70;97.70
38380;DHT22;38377;47.418;18.882;2023-08-31T09:16:44;21.50;97.60
38380;DHT22;38377;47.418;18.882;2023-08-31T09:19:31;21.40;98.50
38380;DHT22;38377;47.418;18.882;2023-08-31T09:21:57;21.70;97.20
38380;DHT22;38377;47.418;18.882;2023-08-31T09:24:23;21.90;97.80
38380;DHT22;38377;47.418;18.882;2023-08-31T09:26:58;21.90;98.10
38380;DHT22;38377;47.418;18.882;2023-08-31T09:29:27;21.90;96.20
38380;DHT22;38377;47.418;18.882;2023-08-31T09:31:53;22.00;96.50
38380;DHT22;38377;47.418;18.882;2023-08-31T09:34:18;22.10;96.40
38380;DHT22;38377;47.418;18.882;2023-08-31T09:36:44;22.30;95.80
38380;DHT22;38377;47.418;18.882;2023-08-31T09:39:12;22.10;95.90
38380;DHT22;38377;47.418;18.882;2023-08-31T09:41:54;22.10;96.10
38380;DHT22;38377;47.418;18.882;2023-08-31T09:44:20;22.20;95.30
38380;DHT22;38377;47.418;18.882;2023-08-31T09:46:46;22.10;94.80
38380;DHT22;38377;47.418;18.882;2023-08-31T09:49:15;22.10;94.90
38380;DHT22;38377;47.418;18.882;2023-08-31T09:51:48;22.10;94.10
38380;DHT22;38377;47.418;18.882;2023-08-31T09:54:18;21.90;93.60
38380;DHT22;38377;47.418;18.882;2023-08-31T09:56:46;21.80;93.90
38380;DHT22;38377;47.418;18.882;2023-08-31T09:59:14;21.90;93.50
38380;DHT22;38377;47.418;18.882;2023-08-31T10:01:41;21.80;93.00
38380;DHT22;38377;47.418;18.882;2023-08-31T10:04:07;21.50;93.70
38380;DHT22;38377;47.418;18.882;2023-08-31T10:06:39;21.30;95.10
38380;DHT22;38377;47.418;18.882;2023-08-31T10:09:06;21.10;94.80
38380;DHT22;38377;47.418;18.882;2023-08-31T10:11:35;20.90;95.30
38380;DHT22;38377;47.418;18.882;2023-08-31T10:14:03;20.70;96.50
38380;DHT22;38377;47.418;18.882;2023-08-31T10:16:30;20.60;96.60
38380;DHT22;38377;47.418;18.882;2023-08-31T10:18:56;20.50;97.10
38380;DHT22;38377;47.418;18.882;2023-08-31T10:21:22;20.50;98.90
38380;DHT22;38377;47.418;18.882;2023-08-31T10:23:49;20.50;98.50
38380;DHT22;38377;47.418;18.882;2023-08-31T10:26:31;20.50;98.30
38380;DHT22;38377;47.418;18.882;2023-08-31T10:28:58;20.50;97.00
38380;DHT22;38377;47.418;18.882;2023-08-31T10:31:27;20.50;96.30
38380;DHT22;38377;47.418;18.882;2023-08-31T10:34:04;20.40;96.70
38380;DHT22;38377;47.418;18.882;2023-08-31T10:36:45;20.50;96.80
38380;DHT22;38377;47.418;18.882;2023-08-31T10:39:12;20.60;96.60
38380;DHT22;38377;47.418;18.882;2023-08-31T10:41:39;20.60;96.10
38380;DHT22;38377;47.418;18.882;2023-08-31T10:44:22;20.50;95.50
38380;DHT22;38377;47.418;18.882;2023-08-31T10:46:49;20.50;95.90
38380;DHT22;38377;47.418;18.882;2023-08-31T10:49:18;20.50;96.30
38380;DHT22;38377;47.418;18.882;2023-08-31T10:51:49;20.40;95.40
38380;DHT22;38377;47.418;18.882;2023-08-31T10:59:52;20.40;97.50
38380;DHT22;38377;47.418;18.882;2023-08-31T11:02:36;20.50;96.60
38380;DHT22;38377;47.418;18.882;2023-08-31T11:07:32;20.70;97.20
38380;DHT22;38377;47.418;18.882;2023-08-31T11:10:23;20.70;95.00
38380;DHT22;38377;47.418;18.882;2023-08-31T11:12:50;21.00;97.10
38380;DHT22;38377;47.418;18.882;2023-08-31T11:15:24;21.00;95.50
38380;DHT22;38377;47.418;18.882;2023-08-31T11:17:51;21.10;95.50
38380;DHT22;38377;47.418;18.882;2023-08-31T11:20:19;21.30;94.50
38380;DHT22;38377;47.418;18.882;2023-08-31T11:22:50;21.50;94.70
38380;DHT22;38377;47.418;18.882;2023-08-31T11:25:16;21.50;95.20
38380;DHT22;38377;47.418;18.882;2023-08-31T11:27:53;21.70;95.40
38380;DHT22;38377;47.418;18.882;2023-08-31T11:30:19;21.90;93.70
38380;DHT22;38377;47.418;18.882;2023-08-31T11:32:47;21.70;93.10
38380;DHT22;38377;47.418;18.882;2023-08-31T11:35:14;21.80;93.20
38380;DHT22;38377;47.418;18.882;2023-08-31T11:37:42;22.00;93.70
38380;DHT22;38377;47.418;18.882;2023-08-31T11:40:08;22.20;92.20
38380;DHT22;38377;47.418;18.882;2023-08-31T11:42:34;22.10;92.60
38380;DHT22;38377;47.418;18.882;2023-08-31T11:45:00;22.00;93.60
38380;DHT22;38377;47.418;18.882;2023-08-31T11:47:26;22.00;93.10
38380;DHT22;38377;47.418;18.882;2023-08-31T11:49:52;22.10;93.20
38380;DHT22;38377;47.418;18.882;2023-08-31T11:52:18;22.20;93.50
38380;DHT22;38377;47.418;18.882;2023-08-31T11:54:44;22.30;92.90
38380;DHT22;38377;47.418;18.882;2023-08-31T11:57:11;22.20;92.90
38380;DHT22;38377;47.418;18.882;2023-08-31T11:59:38;22.20;93.40
38380;DHT22;38377;47.418;18.882;2023-08-31T12:02:08;22.10;92.10
38380;DHT22;38377;47.418;18.882;2023-08-31T12:04:42;22.10;93.00
38380;DHT22;38377;47.418;18.882;2023-08-31T12:07:09;22.30;91.80
38380;DHT22;38377;47.418;18.882;2023-08-31T12:09:35;22.70;93.30
38380;DHT22;38377;47.418;18.882;2023-08-31T12:12:01;22.90;92.30
38380;DHT22;38377;47.418;18.882;2023-08-31T12:14:27;23.30;90.80
38380;DHT22;38377;47.418;18.882;2023-08-31T12:17:01;23.60;90.20
38380;DHT22;38377;47.418;18.882;2023-08-31T12:19:28;23.60;90.50
38380;DHT22;38377;47.418;18.882;2023-08-31T12:21:54;23.60;87.70
38380;DHT22;38377;47.418;18.882;2023-08-31T12:24:21;23.60;89.90
38380;DHT22;38377;47.418;18.882;2023-08-31T12:26:51;23.50;86.90
38380;DHT22;38377;47.418;18.882;2023-08-31T12:29:19;23.60;87.90
38380;DHT22;38377;47.418;18.882;2023-08-31T12:31:45;23.50;88.50
38380;DHT22;38377;47.418;18.882;2023-08-31T12:34:11;23.50;90.20
38380;DHT22;38377;47.418;18.882;2023-08-31T12:36:37;23.50;85.90
38380;DHT22;38377;47.418;18.882;2023-08-31T12:39:04;23.40;88.50
38380;DHT22;38377;47.418;18.882;2023-08-31T12:41:33;23.70;89.10
38380;DHT22;38377;47.418;18.882;2023-08-31T12:43:59;23.90;86.10
38380;DHT22;38377;47.418;18.882;2023-08-31T12:46:25;23.50;85.60
38380;DHT22;38377;47.418;18.882;2023-08-31T12:48:51;23.40;87.10
38380;DHT22;38377;47.418;18.882;2023-08-31T12:51:18;23.40;86.10
38380;DHT22;38377;47.418;18.882;2023-08-31T12:53:44;23.60;84.60
38380;DHT22;38377;47.418;18.882;2023-08-31T12:56:09;23.60;83.70
38380;DHT22;38377;47.418;18.882;2023-08-31T12:58:37;23.50;80.00
38380;DHT22;38377;47.418;18.882;2023-08-31T13:01:03;23.50;82.10
38380;DHT22;38377;47.418;18.882;2023-08-31T13:03:29;23.50;83.80
38380;DHT22;38377;47.418;18.882;2023-08-31T13:05:54;23.60;82.30
38380;DHT22;38377;47.418;18.882;2023-08-31T13:08:20;23.80;82.30
38380;DHT22;38377;47.418;18.882;2023-08-31T13:10:53;23.60;80.00
38380;DHT22;38377;47.418;18.882;2023-08-31T13:13:19;23.40;82.20
38380;DHT22;38377;47.418;18.882;2023-08-31T13:15:49;23.50;79.00
38380;DHT22;38377;47.418;18.882;2023-08-31T13:18:15;23.50;82.70
38380;DHT22;38377;47.418;18.882;2023-08-31T13:20:49;23.60;81.80
38380;DHT22;38377;47.418;18.882;2023-08-31T13:23:14;23.70;81.40
38380;DHT22;38377;47.418;18.882;2023-08-31T13:25:40;23.80;83.10
38380;DHT22;38377;47.418;18.882;2023-08-31T13:28:06;24.00;81.70
38380;DHT22;38377;47.418;18.882;2023-08-31T13:30:31;23.90;77.40
38380;DHT22;38377;47.418;18.882;2023-08-31T13:32:57;23.50;76.30
38380;DHT22;38377;47.418;18.882;2023-08-31T13:35:23;23.20;78.30
38380;DHT22;38377;47.418;18.882;2023-08-31T13:37:48;23.00;81.70
38380;DHT22;38377;47.418;18.882;2023-08-31T13:40:14;23.20;80.00
38380;DHT22;38377;47.418;18.882;2023-08-31T13:42:56;23.40;79.80
38380;DHT22;38377;47.418;18.882;2023-08-31T13:45:27;23.50;80.40
38380;DHT22;38377;47.418;18.882;2023-08-31T13:47:53;23.60;79.50
38380;DHT22;38377;47.418;18.882;2023-08-31T13:50:19;23.60;79.90
38380;DHT22;38377;47.418;18.882;2023-08-31T13:52:45;23.40;79.70
38380;DHT22;38377;47.418;18.882;2023-08-31T13:55:11;23.20;81.00
38380;DHT22;38377;47.418;18.882;2023-08-31T13:57:38;22.90;82.20
38380;DHT22;38377;47.418;18.882;2023-08-31T14:00:04;22.70;81.70
38380;DHT22;38377;47.418;18.882;2023-08-31T14:02:31;22.40;83.60
38380;DHT22;38377;47.418;18.882;2023-08-31T14:04:57;22.20;83.90
38380;DHT22;38377;47.418;18.882;2023-08-31T14:07:23;22.30;83.70
38380;DHT22;38377;47.418;18.882;2023-08-31T14:09:48;22.50;84.40
38380;DHT22;38377;47.418;18.882;2023-08-31T14:12:16;22.70;85.60
38380;DHT22;38377;47.418;18.882;2023-08-31T14:14:41;22.70;83.20
38380;DHT22;38377;47.418;18.882;2023-08-31T14:17:08;22.70;84.10
38380;DHT22;38377;47.418;18.882;2023-08-31T14:19:34;22.90;83.00
38380;DHT22;38377;47.418;18.882;2023-08-31T14:22:01;23.00;82.80
38380;DHT22;38377;47.418;18.882;2023-08-31T14:24:29;23.00;80.60
38380;DHT22;38377;47.418;18.882;2023-08-31T14:26:55;22.80;80.80
38380;DHT22;38377;47.418;18.882;2023-08-31T14:29:20;22.80;80.30
38380;DHT22;38377;47.418;18.882;2023-08-31T14:31:46;22.80;81.90
38380;DHT22;38377;47.418;18.882;2023-08-31T14:34:12;22.80;82.40
38380;DHT22;38377;47.418;18.882;2023-08-31T14:36:37;22.70;83.10
38380;DHT22;38377;47.418;18.882;2023-08-31T14:39:03;22.70;78.40
38380;DHT22;38377;47.418;18.882;2023-08-31T14:41:30;22.80;79.10
38380;DHT22;38377;47.418;18.882;2023-08-31T14:43:56;22.90;78.40
38380;DHT22;38377;47.418;18.882;2023-08-31T14:46:22;23.00;78.20
38380;DHT22;38377;47.418;18.882;2023-08-31T14:48:49;23.00;77.70
38380;DHT22;38377;47.418;18.882;2023-08-31T14:51:15;23.00;80.80
38380;DHT22;38377;47.418;18.882;2023-08-31T14:53:42;23.10;79.60
38380;DHT22;38377;47.418;18.882;2023-08-31T14:56:08;23.20;79.00
38380;DHT22;38377;47.418;18.882;2023-08-31T14:58:34;23.10;78.60
38380;DHT22;38377;47.418;18.882;2023-08-31T15:00:59;23.10;77.70
38380;DHT22;38377;47.418;18.882;2023-08-31T15:03:26;23.00;77.60
38380;DHT22;38377;47.418;18.882;2023-08-31T15:05:51;22.90;76.50
38380;DHT22;38377;47.418;18.882;2023-08-31T15:08:17;22.80;78.10
38380;DHT22;38377;47.418;18.882;2023-08-31T15:10:43;22.70;80.60
38380;DHT22;38377;47.418;18.882;2023-08-31T15:13:09;22.70;78.80
38380;DHT22;38377;47.418;18.882;2023-08-31T15:15:35;22.70;80.40
38380;DHT22;38377;47.418;18.882;2023-08-31T15:18:00;22.70;81.10
38380;DHT22;38377;47.418;18.882;2023-08-31T15:20:29;22.80;79.40
38380;DHT22;38377;47.418;18.882;2023-08-31T15:22:55;22.80;81.50
38380;DHT22;38377;47.418;18.882;2023-08-31T15:25:20;22.70;80.90
38380;DHT22;38377;47.418;18.882;2023-08-31T15:27:46;22.60;80.20
38380;DHT22;38377;47.418;18.882;2023-08-31T15:30:12;22.30;81.80
38380;DHT22;38377;47.418;18.882;2023-08-31T15:32:38;22.20;81.30
38380;DHT22;38377;47.418;18.882;2023-08-31T15:35:04;22.10;82.70